createdAt,value
2018-01-01T00:00:30.714Z,96491.64
2018-01-01T00:01:02.394Z,96487.84
2018-01-01T00:01:34.017Z,96493.61
2018-01-01T00:02:05.637Z,96493.52
2018-01-01T00:02:37.265Z,96492.63
2018-01-01T00:03:08.893Z,96484.15
2018-01-01T00:03:40.569Z,96480.41
2018-01-01T00:04:12.189Z,96496.34
2018-01-01T00:04:43.814Z,96498.16
2018-01-01T00:05:15.445Z,96499.47
2018-01-01T00:05:47.074Z,96495.78
2018-01-01T00:06:18.698Z,96496.70
2018-01-01T00:06:50.338Z,96503.45
2018-01-01T00:07:21.972Z,96505.98
2018-01-01T00:07:53.588Z,96499.97
2018-01-01T00:08:25.214Z,96495.27
2018-01-01T00:08:56.841Z,96493.64
2018-01-01T00:09:28.461Z,96498.88
2018-01-01T00:10:00.236Z,96494.14
2018-01-01T00:10:31.910Z,96499.70
2018-01-01T00:11:03.530Z,96500.00
2018-01-01T00:11:35.155Z,96498.03
2018-01-01T00:12:07.426Z,96498.22
2018-01-01T00:12:39.049Z,96494.37
2018-01-01T00:13:10.669Z,96495.87
2018-01-01T00:13:42.290Z,96493.22
2018-01-01T00:14:13.917Z,96493.25
2018-01-01T00:14:45.538Z,96490.97
2018-01-01T00:15:17.182Z,96490.07
2018-01-01T00:15:48.857Z,96489.50
2018-01-01T00:16:20.490Z,96488.07
2018-01-01T00:16:52.110Z,96482.27
2018-01-01T00:17:23.734Z,96482.04
2018-01-01T00:17:55.353Z,96481.66
2018-01-01T00:18:26.974Z,96485.42
2018-01-01T00:18:58.598Z,96483.80
2018-01-01T00:19:30.217Z,96484.98
2018-01-01T00:20:01.838Z,96477.64
2018-01-01T00:20:33.457Z,96481.95
2018-01-01T00:21:05.135Z,96477.94
2018-01-01T00:21:36.761Z,96479.70
2018-01-01T00:22:08.386Z,96482.58
2018-01-01T00:22:40.008Z,96481.27
2018-01-01T00:23:11.634Z,96480.50
2018-01-01T00:23:43.266Z,96482.55
2018-01-01T00:24:14.894Z,96484.72
2018-01-01T00:24:46.519Z,96480.17
2018-01-01T00:25:18.150Z,96481.77
2018-01-01T00:25:49.781Z,96476.28
2018-01-01T00:26:21.449Z,96472.53
2018-01-01T00:26:53.069Z,96472.05
2018-01-01T00:27:24.689Z,96473.30
2018-01-01T00:27:56.316Z,96472.53
2018-01-01T00:28:27.941Z,96471.25
2018-01-01T00:28:59.601Z,96470.80
2018-01-01T00:29:31.270Z,96474.28
2018-01-01T00:30:02.890Z,96469.65
2018-01-01T00:30:34.517Z,96473.92
2018-01-01T00:31:06.147Z,96474.79
2018-01-01T00:31:37.766Z,96471.78
2018-01-01T00:32:09.394Z,96473.45
2018-01-01T00:32:41.133Z,96476.88
2018-01-01T00:33:12.802Z,96471.34
2018-01-01T00:33:44.425Z,96470.51
2018-01-01T00:34:16.046Z,96467.59
2018-01-01T00:34:47.905Z,96466.62
2018-01-01T00:35:19.527Z,96471.02
2018-01-01T00:35:51.150Z,96468.46
2018-01-01T00:36:22.770Z,96468.40
2018-01-01T00:36:54.397Z,96464.13
2018-01-01T00:37:26.062Z,96464.15
2018-01-01T00:37:57.690Z,96462.94
2018-01-01T00:38:29.309Z,96463.34
2018-01-01T00:39:00.930Z,96461.69
2018-01-01T00:39:32.554Z,96465.52
2018-01-01T00:40:04.177Z,96459.13
2018-01-01T00:40:35.797Z,96463.83
2018-01-01T00:41:07.413Z,96457.94
2018-01-01T00:41:39.053Z,96455.74
2018-01-01T00:42:10.673Z,96464.33
2018-01-01T00:42:42.355Z,96462.22
2018-01-01T00:43:13.975Z,96460.02
2018-01-01T00:43:45.596Z,96464.72
2018-01-01T00:44:17.218Z,96456.25
2018-01-01T00:44:48.842Z,96453.30
2018-01-01T00:45:20.474Z,96454.55
2018-01-01T00:45:52.094Z,96455.86
2018-01-01T00:46:23.713Z,96457.52
2018-01-01T00:46:55.337Z,96454.19
2018-01-01T00:47:26.985Z,96457.16
2018-01-01T00:47:58.663Z,96455.00
2018-01-01T00:48:30.286Z,96452.47
2018-01-01T00:49:02.031Z,96449.09
2018-01-01T00:49:33.657Z,96444.95
2018-01-01T00:50:05.282Z,96448.78
2018-01-01T00:50:36.905Z,96447.98
2018-01-01T00:51:08.525Z,96448.46
2018-01-01T00:51:40.264Z,96448.91
2018-01-01T00:52:14.444Z,96440.76
2018-01-01T00:52:46.084Z,96445.16
2018-01-01T00:53:17.714Z,96445.04
2018-01-01T00:53:49.341Z,96440.87
2018-01-01T00:54:21.015Z,96442.45
2018-01-01T00:54:52.641Z,96443.73
2018-01-01T00:55:24.262Z,96445.04
2018-01-01T00:55:55.885Z,96443.77
2018-01-01T00:56:27.509Z,96441.18
2018-01-01T00:56:59.129Z,96440.80
2018-01-01T00:57:30.754Z,96431.84
2018-01-01T00:58:02.381Z,96439.13
2018-01-01T00:58:34.002Z,96437.84
2018-01-01T00:59:05.625Z,96440.08
2018-01-01T00:59:37.293Z,96435.50
2018-01-01T01:00:08.914Z,96432.95
2018-01-01T01:00:41.118Z,96439.36
2018-01-01T01:01:12.737Z,96440.20
2018-01-01T01:01:44.362Z,96434.22
2018-01-01T01:02:15.993Z,96432.95
2018-01-01T01:02:47.618Z,96432.53
2018-01-01T01:03:19.243Z,96433.86
2018-01-01T01:03:50.875Z,96429.59
2018-01-01T01:04:22.498Z,96431.49
2018-01-01T01:04:54.162Z,96428.84
2018-01-01T01:05:25.789Z,96431.41
2018-01-01T01:05:57.405Z,96433.92
2018-01-01T01:06:29.025Z,96427.56
2018-01-01T01:07:00.646Z,96429.59
2018-01-01T01:07:32.265Z,96430.09
2018-01-01T01:08:03.886Z,96432.23
2018-01-01T01:08:35.505Z,96427.18
2018-01-01T01:09:07.126Z,96436.19
2018-01-01T01:09:38.798Z,96436.63
2018-01-01T01:10:10.418Z,96430.83
2018-01-01T01:10:42.241Z,96426.97
2018-01-01T01:11:13.866Z,96430.80
2018-01-01T01:11:45.493Z,96429.53
2018-01-01T01:12:17.117Z,96430.41
2018-01-01T01:12:48.760Z,96433.80
2018-01-01T01:13:20.391Z,96432.14
2018-01-01T01:13:52.013Z,96436.47
2018-01-01T01:14:23.637Z,96439.03
2018-01-01T01:14:55.256Z,96428.84
2018-01-01T01:15:26.878Z,96434.06
2018-01-01T01:15:58.546Z,96430.23
2018-01-01T01:16:30.174Z,96436.62
2018-01-01T01:17:04.510Z,96439.09
2018-01-01T01:17:38.007Z,96437.03
2018-01-01T01:18:11.097Z,96439.26
2018-01-01T01:18:46.964Z,96438.02
2018-01-01T01:19:18.770Z,96432.45
2018-01-01T01:19:53.070Z,96426.94
2018-01-01T01:20:26.506Z,96426.97
2018-01-01T01:20:58.171Z,96426.52
2018-01-01T01:21:30.654Z,96427.77
2018-01-01T01:22:02.342Z,96431.12
2018-01-01T01:22:38.438Z,96427.85
2018-01-01T01:23:13.616Z,96426.64
2018-01-01T01:23:46.181Z,96412.61
2018-01-01T01:24:20.725Z,96427.47
2018-01-01T01:24:52.438Z,96425.41
2018-01-01T01:25:24.061Z,96425.09
2018-01-01T01:25:55.682Z,96425.50
2018-01-01T01:26:27.305Z,96419.98
2018-01-01T01:26:58.934Z,96418.67
2018-01-01T01:27:30.562Z,96419.41
2018-01-01T01:28:02.182Z,96414.36
2018-01-01T01:28:33.801Z,96416.53
2018-01-01T01:29:05.461Z,96415.26
2018-01-01T01:29:37.081Z,96421.28
2018-01-01T01:30:08.706Z,96412.77
2018-01-01T01:30:40.329Z,96419.98
2018-01-01T01:31:11.949Z,96413.20
2018-01-01T01:31:43.569Z,96406.08
2018-01-01T01:32:15.192Z,96408.66
2018-01-01T01:32:46.817Z,96409.88
2018-01-01T01:33:18.443Z,96410.77
2018-01-01T01:33:50.113Z,96410.23
2018-01-01T01:34:21.734Z,96407.30
2018-01-01T01:34:53.359Z,96402.69
2018-01-01T01:35:24.989Z,96394.56
2018-01-01T01:35:56.609Z,96393.72
2018-01-01T01:36:28.238Z,96397.14
2018-01-01T01:36:59.861Z,96398.80
2018-01-01T01:37:31.513Z,96405.69
2018-01-01T01:38:03.142Z,96404.50
2018-01-01T01:38:34.765Z,96406.16
2018-01-01T01:39:07.057Z,96404.50
2018-01-01T01:39:38.682Z,96401.98
2018-01-01T01:40:10.306Z,96411.33
2018-01-01T01:40:41.935Z,96408.89
2018-01-01T01:41:13.557Z,96402.42
2018-01-01T01:41:45.184Z,96403.64
2018-01-01T01:42:16.866Z,96404.47
2018-01-01T01:42:48.494Z,96407.08
2018-01-01T01:43:20.132Z,96407.89
2018-01-01T01:43:51.757Z,96406.66
2018-01-01T01:44:23.378Z,96402.95
2018-01-01T01:44:55.001Z,96404.64
2018-01-01T01:45:26.630Z,96402.42
2018-01-01T01:45:58.254Z,96405.06
2018-01-01T01:46:29.873Z,96398.20
2018-01-01T01:47:01.499Z,96394.02
2018-01-01T01:47:33.165Z,96398.65
2018-01-01T01:48:04.789Z,96402.95
2018-01-01T01:48:36.413Z,96395.27
2018-01-01T01:49:08.037Z,96401.20
2018-01-01T01:49:39.664Z,96401.55
2018-01-01T01:50:11.286Z,96392.17
2018-01-01T01:50:42.910Z,96389.66
2018-01-01T01:51:14.665Z,96392.20
2018-01-01T01:51:46.337Z,96399.92
2018-01-01T01:52:17.974Z,96394.96
2018-01-01T01:52:49.594Z,96398.67
2018-01-01T01:53:21.262Z,96400.81
2018-01-01T01:53:52.887Z,96394.43
2018-01-01T01:54:24.514Z,96400.84
2018-01-01T01:54:56.137Z,96396.09
2018-01-01T01:55:27.762Z,96394.40
2018-01-01T01:55:59.384Z,96389.35
2018-01-01T01:56:31.005Z,96397.52
2018-01-01T01:57:02.632Z,96393.13
2018-01-01T01:57:34.261Z,96392.68
2018-01-01T01:58:05.881Z,96393.59
2018-01-01T01:58:37.509Z,96391.13
2018-01-01T01:59:09.138Z,96388.97
2018-01-01T01:59:40.758Z,96390.69
2018-01-01T02:00:12.381Z,96384.33
2018-01-01T02:00:44.001Z,96393.59
2018-01-01T02:01:15.630Z,96396.23
2018-01-01T02:01:47.255Z,96390.69
2018-01-01T02:02:18.921Z,96391.58
2018-01-01T02:02:50.560Z,96392.44
2018-01-01T02:03:22.181Z,96389.47
2018-01-01T02:03:53.802Z,96387.78
2018-01-01T02:04:25.422Z,96381.87
2018-01-01T02:04:57.041Z,96394.22
2018-01-01T02:05:28.670Z,96391.52
2018-01-01T02:06:00.293Z,96389.53
2018-01-01T02:06:31.914Z,96389.02
2018-01-01T02:07:03.573Z,96393.27
2018-01-01T02:07:35.193Z,96387.63
2018-01-01T02:08:06.814Z,96389.20
2018-01-01T02:08:38.434Z,96389.41
2018-01-01T02:09:10.066Z,96389.77
2018-01-01T02:09:41.690Z,96393.59
2018-01-01T02:10:13.313Z,96392.68
2018-01-01T02:10:44.933Z,96385.31
2018-01-01T02:11:16.554Z,96394.17
2018-01-01T02:11:48.178Z,96391.17
2018-01-01T02:12:19.934Z,96398.74
2018-01-01T02:12:51.557Z,96396.25
2018-01-01T02:13:23.176Z,96391.50
2018-01-01T02:13:54.802Z,96390.34
2018-01-01T02:14:26.426Z,96391.61
2018-01-01T02:14:58.051Z,96390.34
2018-01-01T02:15:29.735Z,96391.17
2018-01-01T02:16:01.362Z,96385.64
2018-01-01T02:16:32.981Z,96385.11
2018-01-01T02:17:04.610Z,96385.61
2018-01-01T02:17:36.229Z,96380.98
2018-01-01T02:18:07.860Z,96386.51
2018-01-01T02:18:39.485Z,96385.77
2018-01-01T02:19:11.105Z,96387.02
2018-01-01T02:19:42.733Z,96383.68
2018-01-01T02:20:14.353Z,96378.58
2018-01-01T02:20:46.025Z,96383.66
2018-01-01T02:21:17.647Z,96386.63
2018-01-01T02:21:49.266Z,96382.88
2018-01-01T02:22:20.898Z,96383.35
2018-01-01T02:22:52.517Z,96390.55
2018-01-01T02:23:24.146Z,96390.92
2018-01-01T02:23:55.765Z,96383.77
2018-01-01T02:24:27.389Z,96382.88
2018-01-01T02:24:59.009Z,96379.14
2018-01-01T02:25:30.629Z,96384.72
2018-01-01T02:26:02.290Z,96389.53
2018-01-01T02:26:33.918Z,96384.42
2018-01-01T02:27:05.538Z,96380.17
2018-01-01T02:27:37.157Z,96386.00
2018-01-01T02:28:08.773Z,96380.89
2018-01-01T02:28:40.398Z,96380.05
2018-01-01T02:29:12.017Z,96382.97
2018-01-01T02:29:43.637Z,96382.05
2018-01-01T02:30:15.260Z,96374.53
2018-01-01T02:30:46.966Z,96384.30
2018-01-01T02:31:18.631Z,96380.48
2018-01-01T02:31:50.262Z,96377.80
2018-01-01T02:32:21.889Z,96381.63
2018-01-01T02:32:53.518Z,96380.48
2018-01-01T02:33:25.142Z,96382.58
2018-01-01T02:33:56.769Z,96386.00
2018-01-01T02:34:28.396Z,96377.98
2018-01-01T02:35:00.023Z,96380.08
2018-01-01T02:35:31.649Z,96380.95
2018-01-01T02:36:03.270Z,96383.91
2018-01-01T02:36:34.930Z,96379.25
2018-01-01T02:37:06.561Z,96380.98
2018-01-01T02:37:38.181Z,96379.64
2018-01-01T02:38:09.821Z,96375.01
2018-01-01T02:38:41.442Z,96379.25
2018-01-01T02:39:13.061Z,96374.56
2018-01-01T02:39:44.689Z,96373.31
2018-01-01T02:40:16.310Z,96370.41
2018-01-01T02:40:47.973Z,96367.44
2018-01-01T02:41:19.601Z,96372.59
2018-01-01T02:41:51.228Z,96361.08
2018-01-01T02:42:22.860Z,96368.73
2018-01-01T02:42:54.477Z,96365.72
2018-01-01T02:43:26.093Z,96367.44
2018-01-01T02:43:57.718Z,96372.75
2018-01-01T02:44:29.342Z,96371.48
2018-01-01T02:45:01.011Z,96369.81
2018-01-01T02:45:32.638Z,96377.53
2018-01-01T02:46:04.309Z,96378.48
2018-01-01T02:46:35.929Z,96376.38
2018-01-01T02:47:07.586Z,96381.92
2018-01-01T02:47:39.207Z,96377.32
2018-01-01T02:48:10.825Z,96378.54
2018-01-01T02:48:42.445Z,96392.11
2018-01-01T02:49:14.069Z,96387.27
2018-01-01T02:49:45.694Z,96389.44
2018-01-01T02:50:17.321Z,96389.05
2018-01-01T02:50:48.982Z,96386.97
2018-01-01T02:51:20.615Z,96382.97
2018-01-01T02:51:52.238Z,96391.88
2018-01-01T02:52:23.862Z,96396.23
2018-01-01T02:52:55.527Z,96389.02
2018-01-01T02:53:27.150Z,96386.14
2018-01-01T02:53:58.778Z,96383.20
2018-01-01T02:54:30.402Z,96384.89
2018-01-01T02:55:02.022Z,96385.75
2018-01-01T02:55:33.646Z,96380.73
2018-01-01T02:56:05.265Z,96390.45
2018-01-01T02:56:36.885Z,96389.28
2018-01-01T02:57:08.506Z,96387.15
2018-01-01T02:57:40.170Z,96381.20
2018-01-01T02:58:11.797Z,96381.66
2018-01-01T02:58:43.421Z,96390.09
2018-01-01T02:59:15.042Z,96387.06
2018-01-01T02:59:46.662Z,96394.30
2018-01-01T03:00:18.294Z,96390.98
2018-01-01T03:00:49.918Z,96391.45
2018-01-01T03:01:21.546Z,96384.27
2018-01-01T03:01:53.169Z,96385.57
2018-01-01T03:02:24.829Z,96377.38
2018-01-01T03:02:56.502Z,96390.11
2018-01-01T03:03:28.125Z,96379.87
2018-01-01T03:03:59.746Z,96373.13
2018-01-01T03:04:31.374Z,96371.83
2018-01-01T03:05:03.000Z,96369.36
2018-01-01T03:05:34.622Z,96369.75
2018-01-01T03:06:06.241Z,96370.66
2018-01-01T03:06:37.862Z,96374.83
2018-01-01T03:07:09.485Z,96376.94
2018-01-01T03:07:41.102Z,96372.24
2018-01-01T03:08:12.773Z,96371.11
2018-01-01T03:08:44.394Z,96376.55
2018-01-01T03:09:16.022Z,96382.45
2018-01-01T03:09:47.641Z,96375.75
2018-01-01T03:10:19.262Z,96386.34
2018-01-01T03:10:50.889Z,96382.98
2018-01-01T03:11:22.509Z,96378.23
2018-01-01T03:11:54.125Z,96379.58
2018-01-01T03:12:25.746Z,96374.91
2018-01-01T03:12:57.378Z,96377.08
2018-01-01T03:13:29.137Z,96375.41
2018-01-01T03:14:00.757Z,96375.09
2018-01-01T03:14:32.382Z,96374.94
2018-01-01T03:15:04.006Z,96371.91
2018-01-01T03:15:35.625Z,96371.11
2018-01-01T03:16:07.246Z,96376.08
2018-01-01T03:16:38.869Z,96377.38
2018-01-01T03:17:10.502Z,96373.08
2018-01-01T03:17:42.122Z,96370.52
2018-01-01T03:18:13.924Z,96370.52
2018-01-01T03:18:45.550Z,96369.30
2018-01-01T03:19:17.213Z,96370.01
2018-01-01T03:19:48.833Z,96381.23
2018-01-01T03:20:20.457Z,96374.61
2018-01-01T03:20:52.078Z,96384.32
2018-01-01T03:21:23.698Z,96382.19
2018-01-01T03:21:55.317Z,96381.77
2018-01-01T03:22:26.982Z,96380.52
2018-01-01T03:22:58.601Z,96374.50
2018-01-01T03:23:30.222Z,96387.70
2018-01-01T03:24:01.842Z,96389.41
2018-01-01T03:24:33.466Z,96392.01
2018-01-01T03:25:05.086Z,96381.00
2018-01-01T03:25:36.709Z,96383.16
2018-01-01T03:26:08.325Z,96383.19
2018-01-01T03:26:39.949Z,96395.84
2018-01-01T03:27:11.613Z,96391.13
2018-01-01T03:27:43.233Z,96388.18
2018-01-01T03:28:14.901Z,96391.98
2018-01-01T03:28:46.533Z,96391.95
2018-01-01T03:29:18.153Z,96389.55
2018-01-01T03:29:49.774Z,96392.52
2018-01-01T03:30:21.399Z,96388.59
2018-01-01T03:30:53.022Z,96382.21
2018-01-01T03:31:24.643Z,96386.84
2018-01-01T03:31:56.261Z,96390.80
2018-01-01T03:32:27.888Z,96390.67
2018-01-01T03:32:59.505Z,96383.88
2018-01-01T03:33:31.126Z,96383.91
2018-01-01T03:34:02.750Z,96387.62
2018-01-01T03:34:34.374Z,96388.34
2018-01-01T03:35:06.002Z,96388.28
2018-01-01T03:35:37.621Z,96387.00
2018-01-01T03:36:09.246Z,96381.87
2018-01-01T03:36:40.873Z,96381.39
2018-01-01T03:37:12.537Z,96385.70
2018-01-01T03:37:44.161Z,96385.14
2018-01-01T03:38:15.782Z,96385.58
2018-01-01T03:38:47.405Z,96380.50
2018-01-01T03:39:19.025Z,96388.58
2018-01-01T03:39:50.686Z,96380.05
2018-01-01T03:40:22.305Z,96386.05
2018-01-01T03:40:53.926Z,96390.74
2018-01-01T03:41:25.545Z,96391.16
2018-01-01T03:41:57.166Z,96389.44
2018-01-01T03:42:28.789Z,96385.19
2018-01-01T03:43:00.409Z,96387.75
2018-01-01T03:43:32.029Z,96389.53
2018-01-01T03:44:03.647Z,96390.42
2018-01-01T03:44:35.317Z,96401.07
2018-01-01T03:45:06.941Z,96393.00
2018-01-01T03:45:38.567Z,96388.81
2018-01-01T03:46:10.186Z,96389.11
2018-01-01T03:46:41.814Z,96405.87
2018-01-01T03:47:13.433Z,96394.31
2018-01-01T03:47:45.054Z,96392.17
2018-01-01T03:48:16.676Z,96392.14
2018-01-01T03:48:48.297Z,96388.31
2018-01-01T03:49:19.921Z,96389.86
2018-01-01T03:49:51.581Z,96394.25
2018-01-01T03:50:23.202Z,96390.31
2018-01-01T03:50:54.821Z,96383.53
2018-01-01T03:51:26.446Z,96383.03
2018-01-01T03:51:58.065Z,96379.20
2018-01-01T03:52:29.693Z,96387.94
2018-01-01T03:53:01.314Z,96376.47
2018-01-01T03:53:32.933Z,96378.61
2018-01-01T03:54:04.558Z,96377.30
2018-01-01T03:54:36.217Z,96386.24
2018-01-01T03:55:07.838Z,96373.14
2018-01-01T03:55:39.461Z,96379.56
2018-01-01T03:56:11.086Z,96381.67
2018-01-01T03:56:42.709Z,96376.56
2018-01-01T03:57:14.333Z,96382.92
2018-01-01T03:57:45.965Z,96376.14
2018-01-01T03:58:17.586Z,96377.72
2018-01-01T03:58:49.290Z,96386.75
2018-01-01T03:59:20.971Z,96376.53
2018-01-01T03:59:52.593Z,96389.09
2018-01-01T04:00:24.221Z,96386.22
2018-01-01T04:00:55.854Z,96391.33
2018-01-01T04:01:27.481Z,96387.08
2018-01-01T04:01:59.102Z,96392.66
2018-01-01T04:02:30.729Z,96390.52
2018-01-01T04:03:02.350Z,96358.11
2018-01-01T04:03:33.973Z,96388.44
2018-01-01T04:04:05.593Z,96380.78
2018-01-01T04:04:37.270Z,96384.13
2018-01-01T04:05:08.890Z,96386.27
2018-01-01T04:05:40.509Z,96382.05
2018-01-01T04:06:12.134Z,96375.28
2018-01-01T04:06:43.757Z,96380.00
2018-01-01T04:07:15.377Z,96387.22
2018-01-01T04:07:46.997Z,96372.82
2018-01-01T04:08:18.620Z,96379.65
2018-01-01T04:08:50.249Z,96378.28
2018-01-01T04:09:21.869Z,96371.87
2018-01-01T04:09:53.541Z,96379.14
2018-01-01T04:10:25.161Z,96377.42
2018-01-01T04:10:56.781Z,96384.64
2018-01-01T04:11:28.405Z,96390.44
2018-01-01T04:12:00.066Z,96391.20
2018-01-01T04:12:31.684Z,96386.48
2018-01-01T04:13:03.305Z,96393.05
2018-01-01T04:13:34.925Z,96385.12
2018-01-01T04:14:06.554Z,96398.48
2018-01-01T04:14:38.173Z,96389.90
2018-01-01T04:15:09.798Z,96396.16
2018-01-01T04:15:41.418Z,96391.29
2018-01-01T04:16:13.082Z,96399.42
2018-01-01T04:16:44.702Z,96404.97
2018-01-01T04:17:16.332Z,96400.84
2018-01-01T04:17:47.956Z,96408.00
2018-01-01T04:18:19.578Z,96403.70
2018-01-01T04:18:51.201Z,96399.12
2018-01-01T04:19:22.831Z,96399.92
2018-01-01T04:19:54.493Z,96399.18
2018-01-01T04:20:26.115Z,96397.48
2018-01-01T04:20:57.733Z,96398.38
2018-01-01T04:21:29.354Z,96391.16
2018-01-01T04:22:00.973Z,96396.54
2018-01-01T04:22:32.595Z,96398.34
2018-01-01T04:23:04.217Z,96389.05
2018-01-01T04:23:35.837Z,96388.99
2018-01-01T04:24:07.501Z,96386.05
2018-01-01T04:24:39.121Z,96385.16
2018-01-01T04:25:10.742Z,96384.78
2018-01-01T04:25:42.361Z,96382.25
2018-01-01T04:26:13.998Z,96378.48
2018-01-01T04:26:45.618Z,96387.36
2018-01-01T04:27:17.241Z,96383.14
2018-01-01T04:27:48.862Z,96383.62
2018-01-01T04:28:20.489Z,96386.20
2018-01-01T04:28:52.109Z,96389.20
2018-01-01T04:29:23.778Z,96388.81
2018-01-01T04:29:55.398Z,96386.26
2018-01-01T04:30:27.021Z,96390.56
2018-01-01T04:30:58.637Z,96392.34
2018-01-01T04:31:30.257Z,96391.75
2018-01-01T04:32:01.885Z,96393.97
2018-01-01T04:32:33.513Z,96389.73
2018-01-01T04:33:05.133Z,96393.95
2018-01-01T04:33:36.762Z,96388.87
2018-01-01T04:34:08.389Z,96385.95
2018-01-01T04:34:40.054Z,96391.39
2018-01-01T04:35:11.673Z,96390.17
2018-01-01T04:35:43.297Z,96392.25
2018-01-01T04:36:14.917Z,96386.31
2018-01-01T04:36:46.537Z,96382.45
2018-01-01T04:37:18.160Z,96393.97
2018-01-01T04:37:49.780Z,96382.88
2018-01-01T04:38:21.402Z,96382.16
2018-01-01T04:38:53.066Z,96393.64
2018-01-01T04:39:24.688Z,96386.43
2018-01-01T04:39:56.313Z,96385.98
2018-01-01T04:40:27.934Z,96386.43
2018-01-01T04:40:59.554Z,96382.21
2018-01-01T04:41:31.217Z,96392.12
2018-01-01T04:42:02.837Z,96381.91
2018-01-01T04:42:34.461Z,96389.98
2018-01-01T04:43:06.082Z,96389.57
2018-01-01T04:43:37.701Z,96392.52
2018-01-01T04:44:09.321Z,96395.09
2018-01-01T04:44:40.942Z,96386.91
2018-01-01T04:45:12.562Z,96392.73
2018-01-01T04:45:44.185Z,96391.06
2018-01-01T04:46:15.850Z,96395.28
2018-01-01T04:46:47.671Z,96391.81
2018-01-01T04:47:19.333Z,96391.42
2018-01-01T04:47:50.957Z,96396.17
2018-01-01T04:48:22.576Z,96391.92
2018-01-01T04:48:54.236Z,96388.45
2018-01-01T04:49:25.853Z,96396.17
2018-01-01T04:49:57.486Z,96397.03
2018-01-01T04:50:29.109Z,96400.09
2018-01-01T04:51:00.729Z,96400.09
2018-01-01T04:51:32.354Z,96392.37
2018-01-01T04:52:04.030Z,96393.70
2018-01-01T04:52:35.658Z,96397.89
2018-01-01T04:53:07.286Z,96389.88
2018-01-01T04:53:38.914Z,96397.83
2018-01-01T04:54:10.532Z,96408.10
2018-01-01T04:54:42.157Z,96400.89
2018-01-01T04:55:13.777Z,96404.77
2018-01-01T04:55:45.405Z,96404.30
2018-01-01T04:56:17.021Z,96401.34
2018-01-01T04:56:48.637Z,96403.55
2018-01-01T04:57:20.310Z,96402.64
2018-01-01T04:57:51.933Z,96403.55
2018-01-01T04:58:23.553Z,96404.42
2018-01-01T04:58:55.172Z,96408.69
2018-01-01T04:59:26.797Z,96404.55
2018-01-01T04:59:58.418Z,96403.78
2018-01-01T05:00:30.044Z,96404.62
2018-01-01T05:01:01.666Z,96404.98
2018-01-01T05:01:33.290Z,96411.33
2018-01-01T05:02:04.910Z,96414.27
2018-01-01T05:02:36.594Z,96409.25
2018-01-01T05:03:08.216Z,96409.16
2018-01-01T05:03:39.842Z,96410.50
2018-01-01T05:04:11.465Z,96404.12
2018-01-01T05:04:43.089Z,96408.36
2018-01-01T05:05:14.704Z,96408.47
2018-01-01T05:05:46.330Z,96402.51
2018-01-01T05:06:17.958Z,96407.97
2018-01-01T05:06:49.585Z,96402.51
2018-01-01T05:07:21.201Z,96405.50
2018-01-01T05:07:52.861Z,96396.57
2018-01-01T05:08:24.486Z,96411.47
2018-01-01T05:08:56.105Z,96406.83
2018-01-01T05:09:27.726Z,96415.44
2018-01-01T05:09:59.349Z,96409.17
2018-01-01T05:10:30.978Z,96404.84
2018-01-01T05:11:02.597Z,96408.31
2018-01-01T05:11:34.281Z,96411.31
2018-01-01T05:12:05.904Z,96408.42
2018-01-01T05:12:37.530Z,96404.52
2018-01-01T05:13:09.149Z,96404.95
2018-01-01T05:13:40.770Z,96409.28
2018-01-01T05:14:12.505Z,96412.28
2018-01-01T05:14:44.170Z,96409.70
2018-01-01T05:15:15.789Z,96411.09
2018-01-01T05:15:47.409Z,96407.82
2018-01-01T05:16:19.034Z,96410.28
2018-01-01T05:16:50.698Z,96407.05
2018-01-01T05:17:22.325Z,96412.53
2018-01-01T05:17:53.952Z,96411.70
2018-01-01T05:18:25.574Z,96411.79
2018-01-01T05:18:57.202Z,96414.34
2018-01-01T05:19:28.825Z,96408.07
2018-01-01T05:20:00.450Z,96405.99
2018-01-01T05:20:32.073Z,96411.48
2018-01-01T05:21:03.690Z,96416.20
2018-01-01T05:21:35.309Z,96407.27
2018-01-01T05:22:06.933Z,96412.40
2018-01-01T05:22:38.554Z,96415.34
2018-01-01T05:23:10.217Z,96412.81
2018-01-01T05:23:41.838Z,96413.26
2018-01-01T05:24:13.457Z,96420.91
2018-01-01T05:24:45.078Z,96419.72
2018-01-01T05:25:16.693Z,96416.75
2018-01-01T05:25:48.318Z,96411.73
2018-01-01T05:26:19.990Z,96414.65
2018-01-01T05:26:51.646Z,96414.06
2018-01-01T05:27:23.265Z,96414.59
2018-01-01T05:27:54.885Z,96420.03
2018-01-01T05:28:26.509Z,96411.93
2018-01-01T05:28:58.133Z,96414.90
2018-01-01T05:29:29.754Z,96423.33
2018-01-01T05:30:01.398Z,96423.00
2018-01-01T05:30:33.026Z,96417.45
2018-01-01T05:31:04.666Z,96420.86
2018-01-01T05:31:36.293Z,96417.92
2018-01-01T05:32:07.909Z,96431.59
2018-01-01T05:32:39.530Z,96428.95
2018-01-01T05:33:11.193Z,96431.42
2018-01-01T05:33:42.865Z,96423.74
2018-01-01T05:34:14.485Z,96417.78
2018-01-01T05:34:46.105Z,96433.06
2018-01-01T05:35:17.722Z,96423.22
2018-01-01T05:35:49.341Z,96429.13
2018-01-01T05:36:20.966Z,96433.48
2018-01-01T05:36:52.589Z,96428.80
2018-01-01T05:37:24.210Z,96428.30
2018-01-01T05:37:55.838Z,96423.52
2018-01-01T05:38:27.462Z,96426.55
2018-01-01T05:38:59.129Z,96425.72
2018-01-01T05:39:30.754Z,96425.99
2018-01-01T05:40:02.378Z,96433.59
2018-01-01T05:40:33.998Z,96428.90
2018-01-01T05:41:05.622Z,96436.50
2018-01-01T05:41:37.244Z,96429.29
2018-01-01T05:42:08.869Z,96430.95
2018-01-01T05:42:40.489Z,96435.56
2018-01-01T05:43:12.110Z,96433.81
2018-01-01T05:43:43.731Z,96444.33
2018-01-01T05:44:15.393Z,96439.25
2018-01-01T05:44:47.014Z,96442.19
2018-01-01T05:45:18.637Z,96440.41
2018-01-01T05:45:50.302Z,96436.16
2018-01-01T05:46:21.960Z,96440.83
2018-01-01T05:46:53.578Z,96445.94
2018-01-01T05:47:25.205Z,96445.91
2018-01-01T05:47:56.826Z,96445.05
2018-01-01T05:48:28.458Z,96443.77
2018-01-01T05:49:00.078Z,96445.41
2018-01-01T05:49:31.697Z,96443.69
2018-01-01T05:50:03.318Z,96437.66
2018-01-01T05:50:34.981Z,96437.30
2018-01-01T05:51:06.606Z,96438.50
2018-01-01T05:51:38.270Z,96436.86
2018-01-01T05:52:09.902Z,96432.95
2018-01-01T05:52:41.577Z,96438.44
2018-01-01T05:53:13.205Z,96434.61
2018-01-01T05:53:44.830Z,96439.94
2018-01-01T05:54:16.454Z,96444.16
2018-01-01T05:54:48.078Z,96440.20
2018-01-01T05:55:19.705Z,96439.23
2018-01-01T05:55:51.328Z,96433.30
2018-01-01T05:56:22.946Z,96434.98
2018-01-01T05:56:54.565Z,96438.38
2018-01-01T05:57:26.186Z,96439.14
2018-01-01T05:57:57.866Z,96439.00
2018-01-01T05:58:29.489Z,96440.67
2018-01-01T05:59:01.109Z,96431.22
2018-01-01T05:59:32.729Z,96436.84
2018-01-01T06:00:04.345Z,96439.42
2018-01-01T06:00:35.969Z,96439.39
2018-01-01T06:01:07.594Z,96445.39
2018-01-01T06:01:39.213Z,96442.89
2018-01-01T06:02:10.834Z,96444.55
2018-01-01T06:02:42.459Z,96447.11
2018-01-01T06:03:14.133Z,96447.05
2018-01-01T06:03:45.753Z,96450.08
2018-01-01T06:04:17.421Z,96451.75
2018-01-01T06:04:49.045Z,96444.53
2018-01-01T06:05:20.709Z,96449.28
2018-01-01T06:05:52.337Z,96450.08
2018-01-01T06:06:23.957Z,96454.86
2018-01-01T06:06:55.576Z,96451.89
2018-01-01T06:07:27.210Z,96457.83
2018-01-01T06:07:58.829Z,96451.53
2018-01-01T06:08:30.458Z,96452.83
2018-01-01T06:09:02.094Z,96459.66
2018-01-01T06:09:33.718Z,96459.22
2018-01-01T06:10:05.401Z,96456.69
2018-01-01T06:10:37.022Z,96461.41
2018-01-01T06:11:08.641Z,96461.52
2018-01-01T06:11:40.273Z,96464.88
2018-01-01T06:12:11.899Z,96464.35